Athelstane, WI

2:43 AM CDT on July 13, 2014 (GMT -0500)
Athelstane Township (KWIATHEL1) Elev 966 ft | 45.40 °N, 88.12 °W | Change Station

Current weather conditions updated 8 seconds ago

Clear
Clear
60.8 °F
Feels Like 60.8 °F
N
0.0
Wind Variable Wind from WNW
Gusts 0.0 mph

Today is forecast to be Much Cooler than yesterday.

Today
High -- | Low -- °F
--% Chance of Precip.
Yesterday
High -- | Low -- °F
Precip. -- in
5:17 AM 8:39 PM
Full, 99% visible
Pressure 29.78 in
Visibility 10.0 miles
Clouds Clear
Dew Point 58 °F
Humidity 92%
Rainfall 0.00 in
Snow Depth Not available.
UV 0 out of 12
Pollen .70 out of 12
Air Quality Not available.
Flu Activity Sporadic
METAR KIMT 130654Z AUTO 27006KT 10SM CLR 17/16 A2979 RMK AO2 SLP083 T01720156

More Conditions Fewer Conditions

Pressure 29.78 in
Visibility 10.0 miles
Clouds Clear
Dew Point 58 °F
Humidity 92%
Rainfall 0.00 in
Snow Depth Not available.
UV 0 out of 12
Pollen .70 out of 12
Air Quality Not available.
Flu Activity Sporadic
METAR KIMT 130654Z AUTO 27006KT 10SM CLR 17/16 A2979 RMK AO2 SLP083 T01720156

More Conditions Fewer Conditions

10-Day Weather Forecast

Almanac

Astronomy

Jul. 13, 2014 Rise Set
Actual Time 5:17 AM CDT 8:39 PM CDT
Civil Twilight 4:40 AM CDT 9:16 PM CDT
Nautical Twilight 3:52 AM CDT 10:04 PM CDT
Astronomical Twilight 2:51 AM CDT 11:04 PM CDT
Moon 9:18 PM CDT 6:54 AM CDT
Length of Visible Light 16h 35m
Length of Day
15h 22m
Tomorrow will be 1m 36s shorter.
Full, 99% of the Moon is Illuminated
Today
Full
Jul 18
Last Quarter
Jul 26
New
Aug 3
First Quarter
Aug 10
Full

Today's Extremes

State Highs State Lows

Community

WunderPhotos

Upload Photos

1,733,141 photos uploaded!

Nearby

Snow Depth

Station Depth Elevation
No new snow has been reported.

Earthquake Activity

City Distance Mag. Time & Date
No recent earthquake activity has been reported nearby.
Minimum magnitude displayed is 2.5.

Coastal Water Temperatures

Place Temperature
No Stations Reporting

Nearby Weather Stations

Station Location Temp. Dew Point Humidity Wind Precip. Elev Updated Type
Athelstane Township, Athelstane, WI 60.8 °F 58 °F 92% WNW  at  0.0 mph 0.00 in / hr 966 ft 2:42 AM CDT Rapid Fire
RAWS WAUSAUKEE WI, Wausaukee, WI 63 °F 62 °F 95% NW  at  5 mph 0.00 in / hr 763 ft 2:05 AM CDT MADIS
Pine Ridge Lake, Lakewood, WI 61.6 °F 60 °F 95% WSW  at  0.0 mph 0.00 in / hr 1266 ft 1:24 AM CDT Rapid Fire
Lakewood, WI 61.3 °F 58 °F 89% NNE  at  0.0 mph 0.00 in / hr 1219 ft 2:30 AM CDT Normal
Wiggins Lake, Pembine, WI 62.1 °F 62 °F 98% West  at  0.0 mph 0.00 in / hr 997 ft 2:43 AM CDT Rapid Fire
RAWS LAONA WI, Wabeno, WI 61 °F 60 °F 95% West  at  5 mph 0.01 in / hr 1560 ft 2:01 AM CDT MADIS
Mountain, Mountain, WI 61.3 °F 60 °F 94% WNW  at  2.0 mph 0.00 in / hr 925 ft 2:43 AM CDT Rapid Fire

Show More Stations Show Fewer Stations